createdAt,value
2016-08-26T00:00:22.685Z,24.9
2016-08-26T00:01:21.975Z,24.89
2016-08-26T00:02:22.044Z,24.87
2016-08-26T00:03:22.666Z,24.78
2016-08-26T00:04:22.649Z,24.71
2016-08-26T00:05:22.635Z,24.69
2016-08-26T00:06:22.638Z,24.69
2016-08-26T00:07:22.627Z,24.77
2016-08-26T00:08:21.927Z,24.75
2016-08-26T00:09:21.907Z,24.77
2016-08-26T00:10:22.596Z,24.71
2016-08-26T00:11:21.891Z,24.59
2016-08-26T00:12:22.588Z,24.58
2016-08-26T00:13:22.592Z,24.62
2016-08-26T00:14:22.565Z,24.54
2016-08-26T00:15:22.554Z,24.61
2016-08-26T00:16:22.556Z,24.52
2016-08-26T00:17:22.536Z,24.64
2016-08-26T00:18:22.567Z,24.62
2016-08-26T00:19:22.525Z,24.59
2016-08-26T00:20:22.535Z,24.55
2016-08-26T00:21:22.536Z,24.55
2016-08-26T00:22:22.561Z,24.49
2016-08-26T00:23:22.480Z,24.49
2016-08-26T00:24:22.497Z,24.52
2016-08-26T00:25:22.465Z,24.4
2016-08-26T00:26:22.532Z,24.43
2016-08-26T00:27:22.465Z,24.54
2016-08-26T00:28:21.796Z,24.47
2016-08-26T00:29:22.438Z,24.52
2016-08-26T00:30:22.440Z,24.43
2016-08-26T00:31:21.077Z,24.34
2016-08-26T00:32:22.405Z,24.37
2016-08-26T00:33:22.394Z,24.39
2016-08-26T00:34:22.417Z,24.39
2016-08-26T00:35:22.382Z,24.36
2016-08-26T00:36:21.653Z,24.37
2016-08-26T00:37:22.375Z,24.39
2016-08-26T00:38:20.918Z,24.36
2016-08-26T00:39:21.708Z,24.36
2016-08-26T00:40:21.614Z,24.36
2016-08-26T00:41:22.315Z,24.21
2016-08-26T00:42:22.380Z,24.14
2016-08-26T00:43:22.316Z,24.21
2016-08-26T00:44:21.590Z,24.22
2016-08-26T00:45:21.579Z,24.25
2016-08-26T00:46:22.273Z,24.21
2016-08-26T00:47:22.277Z,24.12
2016-08-26T00:48:21.544Z,24.06
2016-08-26T00:49:22.247Z,24.12
2016-08-26T00:50:22.240Z,24.21
2016-08-26T00:51:21.520Z,24.14
2016-08-26T00:52:22.228Z,24.09
2016-08-26T00:53:22.207Z,24.1
2016-08-26T00:54:22.191Z,24
2016-08-26T00:55:22.190Z,23.92
2016-08-26T00:56:22.186Z,23.97
2016-08-26T00:57:22.181Z,23.91
2016-08-26T00:58:21.449Z,24.1
2016-08-26T00:59:22.156Z,24.1
2016-08-26T01:00:22.153Z,23.85
2016-08-26T01:01:21.431Z,23.88
2016-08-26T01:02:22.134Z,23.87
2016-08-26T01:03:21.398Z,23.91
2016-08-26T01:04:22.119Z,23.95
2016-08-26T01:05:22.109Z,23.97
2016-08-26T01:06:22.100Z,24.02
2016-08-26T01:07:22.087Z,24.04
2016-08-26T01:08:22.067Z,24.03
2016-08-26T01:09:22.064Z,23.97
2016-08-26T01:10:21.354Z,23.84
2016-08-26T01:11:22.057Z,23.97
2016-08-26T01:12:21.323Z,23.87
2016-08-26T01:13:22.074Z,23.89
2016-08-26T01:14:22.011Z,23.82
2016-08-26T01:15:22.020Z,23.82
2016-08-26T01:16:22.010Z,23.82
2016-08-26T01:17:21.995Z,23.82
2016-08-26T01:18:21.973Z,23.8
2016-08-26T01:19:20.533Z,23.78
2016-08-26T01:20:21.965Z,23.78
2016-08-26T01:21:21.260Z,23.8
2016-08-26T01:22:21.232Z,23.75
2016-08-26T01:23:21.947Z,23.78
2016-08-26T01:24:21.942Z,23.82
2016-08-26T01:25:21.190Z,23.75
2016-08-26T01:26:21.909Z,23.69
2016-08-26T01:27:21.950Z,23.66
2016-08-26T01:28:21.167Z,23.7
2016-08-26T01:29:20.439Z,23.73
2016-08-26T01:30:21.879Z,23.69
2016-08-26T01:31:21.850Z,23.78
2016-08-26T01:32:21.845Z,23.72
2016-08-26T01:33:21.837Z,23.78
2016-08-26T01:34:21.837Z,23.63
2016-08-26T01:35:21.107Z,23.66
2016-08-26T01:36:21.816Z,23.78
2016-08-26T01:37:21.323Z,23.47
2016-08-26T01:38:21.801Z,23.45
2016-08-26T01:39:21.791Z,23.5
2016-08-26T01:40:21.057Z,23.55
2016-08-26T01:41:21.765Z,23.47
2016-08-26T01:42:21.753Z,23.21
2016-08-26T01:43:21.743Z,23.35
2016-08-26T01:44:21.730Z,23.47
2016-08-26T01:45:21.726Z,23.57
2016-08-26T01:46:20.278Z,23.45
2016-08-26T01:47:21.719Z,23.35
2016-08-26T01:48:21.702Z,23.41
2016-08-26T01:49:20.240Z,23.33
2016-08-26T01:50:21.673Z,23.16
2016-08-26T01:51:21.672Z,23.03
2016-08-26T01:52:21.661Z,22.99
2016-08-26T01:53:21.637Z,23.03
2016-08-26T01:54:20.218Z,23.04
2016-08-26T01:55:21.614Z,22.69
2016-08-26T01:56:21.602Z,22.65
2016-08-26T01:57:20.886Z,22.7
2016-08-26T01:58:20.927Z,22.84
2016-08-26T01:59:20.862Z,22.65
2016-08-26T02:00:21.567Z,22.52
2016-08-26T02:01:20.853Z,22.57
2016-08-26T02:02:20.830Z,22.43
2016-08-26T02:03:20.821Z,22.66
2016-08-26T02:04:21.534Z,22.79
2016-08-26T02:05:21.550Z,22.91
2016-08-26T02:06:20.801Z,23.03
2016-08-26T02:07:21.514Z,23.07
2016-08-26T02:08:21.698Z,23.04
2016-08-26T02:09:21.488Z,22.94
2016-08-26T02:10:21.489Z,23.03
2016-08-26T02:11:21.466Z,23.06
2016-08-26T02:12:21.520Z,23.07
2016-08-26T02:13:21.440Z,23.12
2016-08-26T02:14:21.433Z,23.1
2016-08-26T02:15:20.706Z,23.13
2016-08-26T02:16:20.697Z,23.1
2016-08-26T02:17:21.415Z,23.14
2016-08-26T02:18:21.405Z,23.25
2016-08-26T02:19:21.390Z,23.24
2016-08-26T02:20:21.390Z,23.21
2016-08-26T02:21:21.375Z,23.24
2016-08-26T02:22:21.353Z,23.19
2016-08-26T02:23:21.350Z,23.12
2016-08-26T02:24:20.625Z,22.97
2016-08-26T02:25:21.326Z,23.02
2016-08-26T02:26:21.360Z,23.04
2016-08-26T02:27:20.590Z,22.99
2016-08-26T02:28:21.899Z,23.09
2016-08-26T02:29:21.285Z,23.04
2016-08-26T02:30:20.550Z,23.04
2016-08-26T02:31:20.555Z,23.06
2016-08-26T02:32:21.261Z,23.07
2016-08-26T02:33:21.251Z,23.03
2016-08-26T02:34:21.267Z,23.02
2016-08-26T02:35:21.230Z,22.97
2016-08-26T02:36:21.210Z,22.97
2016-08-26T02:37:20.499Z,22.98
2016-08-26T02:38:21.190Z,22.98
2016-08-26T02:39:21.181Z,22.98
2016-08-26T02:40:21.197Z,22.95
2016-08-26T02:41:21.170Z,22.82
2016-08-26T02:42:20.444Z,22.84
2016-08-26T02:43:21.145Z,22.79
2016-08-26T02:44:21.134Z,22.67
2016-08-26T02:45:21.122Z,22.77
2016-08-26T02:46:21.113Z,22.8
2016-08-26T02:47:21.114Z,22.85
2016-08-26T02:48:20.383Z,22.84
2016-08-26T02:49:21.078Z,22.85
2016-08-26T02:50:21.066Z,22.97
2016-08-26T02:51:21.053Z,22.94
2016-08-26T02:52:21.054Z,22.99
2016-08-26T02:53:21.032Z,22.94
2016-08-26T02:54:21.034Z,22.74
2016-08-26T02:55:20.381Z,22.92
2016-08-26T02:56:21.016Z,22.8
2016-08-26T02:57:21.044Z,22.69
2016-08-26T02:58:20.990Z,22.79
2016-08-26T02:59:20.281Z,22.8
2016-08-26T03:00:20.258Z,22.65
2016-08-26T03:01:20.249Z,22.69
2016-08-26T03:02:20.952Z,22.65
2016-08-26T03:03:20.938Z,22.77
2016-08-26T03:04:20.931Z,22.79
2016-08-26T03:05:20.260Z,22.79
2016-08-26T03:06:20.908Z,22.79
2016-08-26T03:07:20.909Z,22.69
2016-08-26T03:08:20.897Z,22.77
2016-08-26T03:09:20.220Z,22.77
2016-08-26T03:10:20.161Z,22.74
2016-08-26T03:11:20.903Z,22.69
2016-08-26T03:12:20.849Z,22.62
2016-08-26T03:13:20.851Z,22.76
2016-08-26T03:14:20.829Z,22.61
2016-08-26T03:15:20.816Z,22.67
2016-08-26T03:16:20.800Z,22.65
2016-08-26T03:17:19.362Z,22.69
2016-08-26T03:18:20.783Z,22.72
2016-08-26T03:19:20.769Z,22.61
2016-08-26T03:20:20.775Z,22.61
2016-08-26T03:21:20.756Z,22.59
2016-08-26T03:22:20.099Z,22.51
2016-08-26T03:23:20.017Z,22.52
2016-08-26T03:24:20.717Z,22.54
2016-08-26T03:25:20.722Z,22.4
2016-08-26T03:26:20.703Z,22.43
2016-08-26T03:27:20.701Z,22.45
2016-08-26T03:28:20.685Z,22.47
2016-08-26T03:29:20.682Z,22.4
2016-08-26T03:30:20.659Z,22.47
2016-08-26T03:31:20.669Z,22.37
2016-08-26T03:32:19.942Z,22.39
2016-08-26T03:33:20.641Z,22.33
2016-08-26T03:34:19.193Z,22.39
2016-08-26T03:35:19.908Z,22.36
2016-08-26T03:36:19.901Z,22.29
2016-08-26T03:37:20.578Z,22.33
2016-08-26T03:38:20.582Z,22.48
2016-08-26T03:39:20.565Z,22.33
2016-08-26T03:40:19.898Z,22.45
2016-08-26T03:41:20.547Z,22.45
2016-08-26T03:42:20.535Z,22.37
2016-08-26T03:43:20.534Z,22.3
2016-08-26T03:44:20.542Z,22.33
2016-08-26T03:45:19.791Z,22.37
2016-08-26T03:46:20.492Z,22.32
2016-08-26T03:47:20.480Z,22.25
2016-08-26T03:48:20.482Z,22.25
2016-08-26T03:49:20.461Z,22.11
2016-08-26T03:50:20.479Z,22.08
2016-08-26T03:51:20.441Z,22.08
2016-08-26T03:52:20.434Z,22.12
2016-08-26T03:53:19.710Z,22.1
2016-08-26T03:54:20.419Z,22.15
2016-08-26T03:55:20.406Z,22.11
2016-08-26T03:56:20.447Z,22.17
2016-08-26T03:57:20.385Z,21.93
2016-08-26T03:58:20.374Z,21.74
2016-08-26T03:59:20.360Z,21.66
2016-08-26T04:00:20.358Z,21.66
2016-08-26T04:01:19.632Z,21.58
2016-08-26T04:02:20.352Z,21.41
2016-08-26T04:03:20.341Z,21.26
2016-08-26T04:04:20.302Z,21.34
2016-08-26T04:05:20.301Z,21.49
2016-08-26T04:06:20.292Z,21.34
2016-08-26T04:07:19.565Z,21.34
2016-08-26T04:08:20.310Z,21.39
2016-08-26T04:09:19.537Z,21.46
2016-08-26T04:10:20.247Z,21.55
2016-08-26T04:11:19.536Z,21.62
2016-08-26T04:12:20.237Z,21.81
2016-08-26T04:13:18.783Z,21.79
2016-08-26T04:14:20.226Z,21.79
2016-08-26T04:15:20.189Z,21.8
2016-08-26T04:16:19.449Z,21.95
2016-08-26T04:17:20.162Z,21.9
2016-08-26T04:18:20.177Z,21.97
2016-08-26T04:19:20.143Z,21.83
2016-08-26T04:20:18.713Z,21.99
2016-08-26T04:21:20.141Z,21.96
2016-08-26T04:22:20.112Z,21.95
2016-08-26T04:23:19.382Z,21.95
2016-08-26T04:24:19.371Z,21.97
2016-08-26T04:25:20.083Z,21.86
2016-08-26T04:26:20.059Z,21.96
2016-08-26T04:27:20.052Z,21.88
2016-08-26T04:28:20.039Z,21.74
2016-08-26T04:29:19.317Z,21.59
2016-08-26T04:30:20.012Z,21.64
2016-08-26T04:31:20.012Z,21.56
2016-08-26T04:32:20.022Z,21.59
2016-08-26T04:33:19.997Z,21.59
2016-08-26T04:34:19.264Z,21.5
2016-08-26T04:35:19.972Z,21.37
2016-08-26T04:36:19.250Z,21.21
2016-08-26T04:37:19.965Z,21.13
2016-08-26T04:38:19.217Z,21.33
2016-08-26T04:39:19.226Z,21.43
2016-08-26T04:40:19.909Z,21.44
2016-08-26T04:41:19.904Z,21.56
2016-08-26T04:42:19.891Z,21.59
2016-08-26T04:43:19.871Z,21.61
2016-08-26T04:44:19.878Z,21.5
2016-08-26T04:45:19.862Z,21.54
2016-08-26T04:46:19.853Z,21.68
2016-08-26T04:47:19.841Z,21.81
2016-08-26T04:48:19.113Z,21.8
2016-08-26T04:49:19.107Z,21.84
2016-08-26T04:50:19.799Z,21.64
2016-08-26T04:51:19.820Z,21.76
2016-08-26T04:52:19.076Z,21.8
2016-08-26T04:53:19.842Z,21.81
2016-08-26T04:54:19.046Z,21.83
2016-08-26T04:55:19.054Z,21.9
2016-08-26T04:56:19.742Z,21.92
2016-08-26T04:57:19.739Z,21.95
2016-08-26T04:58:19.715Z,21.93
2016-08-26T04:59:18.997Z,21.86
2016-08-26T05:00:19.712Z,21.92
2016-08-26T05:01:19.702Z,21.8
2016-08-26T05:02:19.673Z,21.79
2016-08-26T05:03:19.669Z,21.8
2016-08-26T05:04:18.962Z,21.8
2016-08-26T05:05:19.640Z,21.74
2016-08-26T05:06:18.931Z,21.65
2016-08-26T05:07:19.621Z,21.55
2016-08-26T05:08:18.183Z,21.56
2016-08-26T05:09:18.877Z,21.47
2016-08-26T05:10:18.871Z,21.41
2016-08-26T05:11:19.569Z,21.47
2016-08-26T05:12:19.561Z,21.68
2016-08-26T05:13:18.841Z,21.59
2016-08-26T05:14:19.547Z,21.76
2016-08-26T05:15:19.532Z,21.88
2016-08-26T05:16:19.527Z,21.9
2016-08-26T05:17:19.510Z,21.97
2016-08-26T05:18:19.510Z,21.74
2016-08-26T05:19:19.553Z,21.58
2016-08-26T05:20:18.753Z,21.88
2016-08-26T05:21:19.477Z,21.96
2016-08-26T05:22:18.734Z,21.93
2016-08-26T05:23:19.450Z,22.08
2016-08-26T05:24:18.739Z,22.03
2016-08-26T05:25:19.468Z,21.95
2016-08-26T05:26:18.695Z,22.06
2016-08-26T05:27:19.398Z,22.03
2016-08-26T05:28:19.387Z,22.12
2016-08-26T05:29:18.668Z,22.1
2016-08-26T05:30:19.362Z,22.15
2016-08-26T05:31:19.348Z,22.08
2016-08-26T05:32:19.346Z,22.17
2016-08-26T05:33:19.352Z,22.3
2016-08-26T05:34:17.887Z,22.21
2016-08-26T05:35:19.327Z,22.06
2016-08-26T05:36:19.304Z,22.08
2016-08-26T05:37:18.587Z,22
2016-08-26T05:38:19.287Z,22.1
2016-08-26T05:39:19.275Z,22.1
2016-08-26T05:40:18.545Z,22.08
2016-08-26T05:41:18.542Z,21.99
2016-08-26T05:42:19.248Z,21.95
2016-08-26T05:43:19.227Z,21.84
2016-08-26T05:44:19.236Z,21.68
2016-08-26T05:45:18.490Z,21.76
2016-08-26T05:46:18.487Z,21.79
2016-08-26T05:47:18.475Z,21.76
2016-08-26T05:48:19.176Z,21.66
2016-08-26T05:49:19.172Z,21.65
2016-08-26T05:50:19.176Z,21.68
2016-08-26T05:51:18.431Z,21.66
2016-08-26T05:52:19.139Z,21.77
2016-08-26T05:53:19.137Z,21.76
2016-08-26T05:54:19.113Z,21.88
2016-08-26T05:55:19.087Z,21.86
2016-08-26T05:56:19.081Z,21.99
2016-08-26T05:57:18.357Z,21.96
2016-08-26T05:58:19.063Z,21.84
2016-08-26T05:59:19.054Z,21.96
2016-08-26T06:00:18.325Z,22.03
2016-08-26T06:01:19.042Z,21.92
2016-08-26T06:02:18.323Z,22.1
2016-08-26T06:03:19.014Z,22.15
2016-08-26T06:04:19.010Z,22.18
2016-08-26T06:05:18.993Z,22.32
2016-08-26T06:06:18.263Z,22.39
2016-08-26T06:07:18.969Z,22.39
2016-08-26T06:08:18.949Z,22.4
2016-08-26T06:09:18.951Z,22.3
2016-08-26T06:10:17.495Z,22.51
2016-08-26T06:11:18.207Z,22.55
2016-08-26T06:12:18.968Z,22.58
2016-08-26T06:13:18.903Z,22.67
2016-08-26T06:14:18.886Z,22.69
2016-08-26T06:15:17.452Z,22.77
2016-08-26T06:16:18.889Z,22.8
2016-08-26T06:17:18.854Z,22.82
2016-08-26T06:18:18.856Z,22.87
2016-08-26T06:19:18.828Z,22.91
2016-08-26T06:20:18.117Z,22.76
2016-08-26T06:21:18.827Z,22.89
2016-08-26T06:22:18.814Z,22.94
2016-08-26T06:23:18.795Z,22.92
2016-08-26T06:24:18.783Z,22.77
2016-08-26T06:25:18.789Z,22.88
2016-08-26T06:26:18.772Z,22.97
2016-08-26T06:27:18.764Z,22.99
2016-08-26T06:28:18.749Z,23.12
2016-08-26T06:29:18.736Z,23.03
2016-08-26T06:30:18.007Z,23.17
2016-08-26T06:31:18.714Z,23.07
2016-08-26T06:32:18.713Z,23.24
2016-08-26T06:33:18.697Z,23.22
2016-08-26T06:34:18.686Z,23.32
2016-08-26T06:35:18.681Z,23.24
2016-08-26T06:36:18.670Z,23.14
2016-08-26T06:37:18.760Z,23.21
2016-08-26T06:38:17.927Z,23.22
2016-08-26T06:39:18.642Z,23.28
2016-08-26T06:40:17.921Z,23.29
2016-08-26T06:41:18.621Z,23.33
2016-08-26T06:42:18.610Z,23.57
2016-08-26T06:43:17.874Z,23.66
2016-08-26T06:44:18.582Z,23.73
2016-08-26T06:45:17.886Z,23.73
2016-08-26T06:46:18.566Z,23.73
2016-08-26T06:47:17.835Z,23.72
2016-08-26T06:48:18.541Z,23.84
2016-08-26T06:49:18.583Z,23.85
2016-08-26T06:50:18.516Z,23.82
2016-08-26T06:51:17.799Z,23.99
2016-08-26T06:52:18.509Z,24.36
2016-08-26T06:53:17.781Z,24.66
2016-08-26T06:54:17.791Z,25.14
2016-08-26T06:55:18.488Z,25.79
2016-08-26T06:56:18.478Z,26.04
2016-08-26T06:57:17.759Z,27.11
2016-08-26T06:58:17.741Z,27.97
2016-08-26T06:59:18.463Z,28.79
2016-08-26T07:00:17.740Z,29.4
2016-08-26T07:01:18.459Z,29.47
2016-08-26T07:02:17.732Z,28.92
2016-08-26T07:03:18.432Z,28.68
2016-08-26T07:04:18.433Z,28.37
2016-08-26T07:05:17.720Z,28.71
2016-08-26T07:06:18.432Z,28.6
2016-08-26T07:07:17.713Z,28.95
2016-08-26T07:08:18.425Z,29.31
2016-08-26T07:09:18.418Z,29.84
2016-08-26T07:10:18.418Z,30.2
2016-08-26T07:11:18.399Z,30.28
2016-08-26T07:12:18.405Z,29.68
2016-08-26T07:13:18.411Z,29.68
2016-08-26T07:14:18.398Z,30.25
2016-08-26T07:15:18.403Z,31.29
2016-08-26T07:16:18.396Z,31.85
2016-08-26T07:17:18.397Z,31.62
2016-08-26T07:18:16.947Z,30.63
2016-08-26T07:19:17.661Z,30.49
2016-08-26T07:20:18.425Z,30.25
2016-08-26T07:21:18.363Z,30.63
2016-08-26T07:22:18.432Z,31.37
2016-08-26T07:23:18.368Z,31.74
2016-08-26T07:24:16.943Z,31.75
2016-08-26T07:25:18.380Z,32.54
2016-08-26T07:26:18.378Z,33.16
2016-08-26T07:27:18.366Z,33.59
2016-08-26T07:28:18.412Z,32.58
2016-08-26T07:29:17.649Z,32.38
2016-08-26T07:30:18.356Z,33.16
2016-08-26T07:31:17.640Z,33.16
2016-08-26T07:32:18.417Z,33.59
2016-08-26T07:33:17.686Z,33.78
2016-08-26T07:34:18.353Z,34.13
2016-08-26T07:35:17.646Z,33.94
2016-08-26T07:36:18.354Z,33.7
2016-08-26T07:37:18.340Z,33.33
2016-08-26T07:38:18.350Z,33.28
2016-08-26T07:39:18.352Z,32.48
2016-08-26T07:40:18.331Z,32.35
2016-08-26T07:41:17.628Z,32.08
2016-08-26T07:42:18.335Z,31.54
2016-08-26T07:43:18.354Z,31.32
2016-08-26T07:44:18.345Z,31.64
2016-08-26T07:45:18.344Z,32.21
2016-08-26T07:46:18.337Z,32.45
2016-08-26T07:47:18.350Z,32.39
2016-08-26T07:48:18.360Z,32.58
2016-08-26T07:49:18.396Z,32.72
2016-08-26T07:50:18.347Z,32.31
2016-08-26T07:51:18.375Z,32.12
2016-08-26T07:52:18.352Z,32.41
2016-08-26T07:53:18.359Z,32.48
2016-08-26T07:54:18.357Z,32.27
2016-08-26T07:55:17.632Z,31.87
2016-08-26T07:56:18.355Z,32.35
2016-08-26T07:57:18.366Z,32.27
2016-08-26T07:58:17.638Z,32.76
2016-08-26T07:59:18.377Z,33.44
2016-08-26T08:00:17.647Z,33.57
2016-08-26T08:01:17.638Z,33.69
2016-08-26T08:02:18.370Z,33.84
2016-08-26T08:03:18.379Z,33.76
2016-08-26T08:04:18.367Z,33.82
2016-08-26T08:05:17.658Z,33.62
2016-08-26T08:06:18.390Z,33.73
2016-08-26T08:07:18.373Z,34.13
2016-08-26T08:08:18.379Z,33.57
2016-08-26T08:09:17.680Z,33.05
2016-08-26T08:10:18.398Z,33.3
2016-08-26T08:11:17.682Z,33.07
2016-08-26T08:12:17.678Z,33.41
2016-08-26T08:13:17.686Z,33.19
2016-08-26T08:14:18.437Z,33.54
2016-08-26T08:15:18.402Z,33.73
2016-08-26T08:16:17.686Z,33.97
2016-08-26T08:17:17.708Z,34.11
2016-08-26T08:18:17.693Z,34.55
2016-08-26T08:19:18.418Z,34.8
2016-08-26T08:20:18.414Z,35.04
2016-08-26T08:21:18.427Z,35.35
2016-08-26T08:22:17.700Z,35.63
2016-08-26T08:23:18.424Z,35.9
2016-08-26T08:24:18.420Z,36.09
2016-08-26T08:25:17.006Z,36.07
2016-08-26T08:26:18.421Z,35.87
2016-08-26T08:27:18.433Z,35.27
2016-08-26T08:28:18.451Z,34.91
2016-08-26T08:29:18.463Z,34.92
2016-08-26T08:30:17.731Z,35.27
2016-08-26T08:31:18.487Z,35.41
2016-08-26T08:32:18.453Z,35.13
2016-08-26T08:33:17.784Z,35.25
2016-08-26T08:34:18.462Z,35.7
2016-08-26T08:35:18.473Z,36.04
2016-08-26T08:36:18.477Z,36.2
2016-08-26T08:37:18.503Z,35.95
2016-08-26T08:38:18.490Z,35.97
2016-08-26T08:39:17.771Z,35.83
2016-08-26T08:40:18.498Z,35.73
2016-08-26T08:41:17.796Z,36.06
2016-08-26T08:42:18.500Z,36.37
2016-08-26T08:43:18.517Z,36.25
2016-08-26T08:44:18.515Z,35.58
2016-08-26T08:45:17.797Z,35.39
2016-08-26T08:46:17.098Z,35.54
2016-08-26T08:47:18.520Z,35.7
2016-08-26T08:48:18.535Z,36
2016-08-26T08:49:18.775Z,36.11
2016-08-26T08:50:18.555Z,35.94
2016-08-26T08:51:17.184Z,36.07
2016-08-26T08:52:18.597Z,36.19
2016-08-26T08:53:18.564Z,36.13
2016-08-26T08:54:17.851Z,36.51
2016-08-26T08:55:18.564Z,36.42
2016-08-26T08:56:17.887Z,35.95
2016-08-26T08:57:18.575Z,36.2
2016-08-26T08:58:18.590Z,36.22
2016-08-26T08:59:17.875Z,36.41
2016-08-26T09:00:18.592Z,36.64
2016-08-26T09:01:17.874Z,36.69
2016-08-26T09:02:18.597Z,37.07
2016-08-26T09:03:18.615Z,36.88
2016-08-26T09:04:18.643Z,36.91
2016-08-26T09:05:17.922Z,37.05
2016-08-26T09:06:17.917Z,36.76
2016-08-26T09:07:18.634Z,36.09
2016-08-26T09:08:18.645Z,35.91
2016-08-26T09:09:18.006Z,36.27
2016-08-26T09:10:18.667Z,36.49
2016-08-26T09:11:18.690Z,36.56
2016-08-26T09:12:17.953Z,37.16
2016-08-26T09:13:18.685Z,37.3
2016-08-26T09:14:18.677Z,37.73
2016-08-26T09:15:18.688Z,37.62
2016-08-26T09:16:18.689Z,37.94
2016-08-26T09:17:18.709Z,38.22
2016-08-26T09:18:18.701Z,38.42
2016-08-26T09:19:17.291Z,37.6
2016-08-26T09:20:18.728Z,38.28
2016-08-26T09:21:18.735Z,38.29
2016-08-26T09:22:18.019Z,38.36
2016-08-26T09:23:18.740Z,37.67
2016-08-26T09:24:18.746Z,37.08
2016-08-26T09:25:18.051Z,36.98
2016-08-26T09:26:18.767Z,37.3
2016-08-26T09:27:18.044Z,37.83
2016-08-26T09:28:18.106Z,38.23
2016-08-26T09:29:18.784Z,38.17
2016-08-26T09:30:18.790Z,38.28
2016-08-26T09:31:18.802Z,37.99
2016-08-26T09:32:18.836Z,37.89
2016-08-26T09:33:18.815Z,37.66
2016-08-26T09:34:18.807Z,37.15
2016-08-26T09:35:18.818Z,37.32
2016-08-26T09:36:18.823Z,37.41
2016-08-26T09:37:18.844Z,37.6
2016-08-26T09:38:18.109Z,38.04
2016-08-26T09:39:18.841Z,37.39
2016-08-26T09:40:18.833Z,36.74
2016-08-26T09:41:18.860Z,36.95
2016-08-26T09:42:18.147Z,37.57
2016-08-26T09:43:18.874Z,37.54
2016-08-26T09:44:18.890Z,37.88
2016-08-26T09:45:18.160Z,37.8
2016-08-26T09:46:18.169Z,36.98
2016-08-26T09:47:18.249Z,35.41
2016-08-26T09:48:18.886Z,35.6
2016-08-26T09:49:18.903Z,35.91
2016-08-26T09:50:18.900Z,36.27
2016-08-26T09:51:18.200Z,36.27
2016-08-26T09:52:18.914Z,36.29
2016-08-26T09:53:18.251Z,36.86
2016-08-26T09:54:18.942Z,37.13
2016-08-26T09:55:18.931Z,37.49
2016-08-26T09:56:18.922Z,37.62
2016-08-26T09:57:17.516Z,37.8
2016-08-26T09:58:18.936Z,37.16
2016-08-26T09:59:18.938Z,37.04
2016-08-26T10:00:18.219Z,36.95
2016-08-26T10:01:18.950Z,36.95
2016-08-26T10:02:18.945Z,37.39
2016-08-26T10:03:18.957Z,36.95
2016-08-26T10:04:18.961Z,36.44
2016-08-26T10:05:18.956Z,36.88
2016-08-26T10:06:18.955Z,37.34
2016-08-26T10:07:18.975Z,37.07
2016-08-26T10:08:18.973Z,37.47
2016-08-26T10:09:18.969Z,37.55
2016-08-26T10:10:19.007Z,37.5
2016-08-26T10:11:18.260Z,37.54
2016-08-26T10:12:19.022Z,37.88
2016-08-26T10:13:18.977Z,37.92
2016-08-26T10:14:19.012Z,37.79
2016-08-26T10:15:18.278Z,37.88
2016-08-26T10:16:18.998Z,37.64
2016-08-26T10:17:18.274Z,37.55
2016-08-26T10:18:18.990Z,37.57
2016-08-26T10:19:18.275Z,37.57
2016-08-26T10:20:18.992Z,37.25
2016-08-26T10:21:18.276Z,37.76
2016-08-26T10:22:19.081Z,37.92
2016-08-26T10:23:19.000Z,37.98
2016-08-26T10:24:19.007Z,37.94
2016-08-26T10:25:19.007Z,38.23
2016-08-26T10:26:17.566Z,38.54
2016-08-26T10:27:19.011Z,38.59
2016-08-26T10:28:18.296Z,37.95
2016-08-26T10:29:18.348Z,38.25
2016-08-26T10:30:18.307Z,37.57
2016-08-26T10:31:18.366Z,37.2
2016-08-26T10:32:19.015Z,37.72
2016-08-26T10:33:19.061Z,38.04
2016-08-26T10:34:19.054Z,38.48
2016-08-26T10:35:18.328Z,38.88
2016-08-26T10:36:19.010Z,39.09
2016-08-26T10:37:19.017Z,38.98
2016-08-26T10:38:18.301Z,38.89
2016-08-26T10:39:19.018Z,38.32
2016-08-26T10:40:18.311Z,38.3
2016-08-26T10:41:19.016Z,38.17
2016-08-26T10:42:18.289Z,38.17
2016-08-26T10:43:18.307Z,38.36
2016-08-26T10:44:19.042Z,38.51
2016-08-26T10:45:18.310Z,38.78
2016-08-26T10:46:18.331Z,39.11
2016-08-26T10:47:19.042Z,39.26
2016-08-26T10:48:18.299Z,39.32
2016-08-26T10:49:19.034Z,39.45
2016-08-26T10:50:19.018Z,39.27
2016-08-26T10:51:19.029Z,39.12
2016-08-26T10:52:18.316Z,39.28
2016-08-26T10:53:18.307Z,39.32
2016-08-26T10:54:19.023Z,39.26
2016-08-26T10:55:19.021Z,39.12
2016-08-26T10:56:18.307Z,39.11
2016-08-26T10:57:19.036Z,39.27
2016-08-26T10:58:17.660Z,39.27
2016-08-26T10:59:18.320Z,38.89
2016-08-26T11:00:18.315Z,38.99
2016-08-26T11:01:19.051Z,39.2
2016-08-26T11:02:19.096Z,38.47
2016-08-26T11:03:18.330Z,38.78
2016-08-26T11:04:19.056Z,38.64
2016-08-26T11:05:19.054Z,38.7
2016-08-26T11:06:18.324Z,38.69
2016-08-26T11:07:18.320Z,38.85
2016-08-26T11:08:18.322Z,38.88
2016-08-26T11:09:19.042Z,39.02
2016-08-26T11:10:19.067Z,39.28
2016-08-26T11:11:19.037Z,39.24
2016-08-26T11:12:18.329Z,39.21
2016-08-26T11:13:18.321Z,39.35
2016-08-26T11:14:19.070Z,39.46
2016-08-26T11:15:18.340Z,39.43
2016-08-26T11:16:17.607Z,39.4
2016-08-26T11:17:19.059Z,39.24
2016-08-26T11:18:19.065Z,38.97
2016-08-26T11:19:19.070Z,38.89
2016-08-26T11:20:19.056Z,39.11
2016-08-26T11:21:18.397Z,39.09
2016-08-26T11:22:19.069Z,39.28
2016-08-26T11:23:18.381Z,39.05
2016-08-26T11:24:18.341Z,39.23
2016-08-26T11:25:19.045Z,39.35
2016-08-26T11:26:18.327Z,39.28
2016-08-26T11:27:17.625Z,39.42
2016-08-26T11:28:19.060Z,39.49
2016-08-26T11:29:18.335Z,39.61
2016-08-26T11:30:18.351Z,39.43
2016-08-26T11:31:19.064Z,39.46
2016-08-26T11:32:19.063Z,39.54
2016-08-26T11:33:19.065Z,39.45
2016-08-26T11:34:18.361Z,39.36
2016-08-26T11:35:19.117Z,39.32
2016-08-26T11:36:19.086Z,39.55
2016-08-26T11:37:19.070Z,39.57
2016-08-26T11:38:19.091Z,39.35
2016-08-26T11:39:19.070Z,39.43
2016-08-26T11:40:19.063Z,39.54
2016-08-26T11:41:19.077Z,39.65
2016-08-26T11:42:19.074Z,39.4
2016-08-26T11:43:19.090Z,39.51
2016-08-26T11:44:19.126Z,39.67
2016-08-26T11:45:19.065Z,39.6
2016-08-26T11:46:18.356Z,39.69
2016-08-26T11:47:19.074Z,39.89
2016-08-26T11:48:19.091Z,39.83
2016-08-26T11:49:19.073Z,39.8
2016-08-26T11:50:18.432Z,39.92
2016-08-26T11:51:18.367Z,39.86
2016-08-26T11:52:18.378Z,39.91
2016-08-26T11:53:19.085Z,39.89
2016-08-26T11:54:19.077Z,39.88
2016-08-26T11:55:19.078Z,39.95
2016-08-26T11:56:18.378Z,40.02
2016-08-26T11:57:19.085Z,40.07
2016-08-26T11:58:19.128Z,40.11
2016-08-26T11:59:19.101Z,40.14
2016-08-26T12:00:19.099Z,40.17
2016-08-26T12:01:19.087Z,40.15
2016-08-26T12:02:19.091Z,40.07
2016-08-26T12:03:19.094Z,40.14
2016-08-26T12:04:18.377Z,40.14
2016-08-26T12:05:18.391Z,40.15
2016-08-26T12:06:18.385Z,40.01
2016-08-26T12:07:19.188Z,40.02
2016-08-26T12:08:19.186Z,39.49
2016-08-26T12:09:18.386Z,39.73
2016-08-26T12:10:19.096Z,39.67
2016-08-26T12:11:18.397Z,39.62
2016-08-26T12:12:18.391Z,39.89
2016-08-26T12:13:19.108Z,39.98
2016-08-26T12:14:19.098Z,40.01
2016-08-26T12:15:19.098Z,40.08
2016-08-26T12:16:18.406Z,40.21
2016-08-26T12:17:19.128Z,39.4
2016-08-26T12:18:19.119Z,39.38
2016-08-26T12:19:19.111Z,39.42
2016-08-26T12:20:19.115Z,39.4
2016-08-26T12:21:18.410Z,39.55
2016-08-26T12:22:19.113Z,39.67
2016-08-26T12:23:18.411Z,39.84
2016-08-26T12:24:17.695Z,39.86
2016-08-26T12:25:17.688Z,39.89
2016-08-26T12:26:19.120Z,39.58
2016-08-26T12:27:18.411Z,39.36
2016-08-26T12:28:18.410Z,39.61
2016-08-26T12:29:18.409Z,39.73
2016-08-26T12:30:18.418Z,39.61
2016-08-26T12:31:19.119Z,39.74
2016-08-26T12:32:19.150Z,39.61
2016-08-26T12:33:19.129Z,39.39
2016-08-26T12:34:19.122Z,39.4
2016-08-26T12:35:19.142Z,39.28
2016-08-26T12:36:19.166Z,39.45
2016-08-26T12:37:18.413Z,39.26
2016-08-26T12:38:19.189Z,39.4
2016-08-26T12:39:19.148Z,39.58
2016-08-26T12:40:19.137Z,39.49
2016-08-26T12:41:19.135Z,39.64
2016-08-26T12:42:19.132Z,39.42
2016-08-26T12:43:19.137Z,39.54
2016-08-26T12:44:18.413Z,39.58
2016-08-26T12:45:19.138Z,39.6
2016-08-26T12:46:19.136Z,39.65
2016-08-26T12:47:18.423Z,39.72
2016-08-26T12:48:19.138Z,39.58
2016-08-26T12:49:19.141Z,39.26
2016-08-26T12:50:18.437Z,39.08
2016-08-26T12:51:18.432Z,39.3
2016-08-26T12:52:18.437Z,39.35
2016-08-26T12:53:18.451Z,39.21
2016-08-26T12:54:19.167Z,39.26
2016-08-26T12:55:19.154Z,39.42